createdAt,value
2019-01-24T00:01:36.090Z,96582.06
2019-01-24T00:04:05.917Z,96579.37
2019-01-24T00:06:35.420Z,96581.14
2019-01-24T00:09:08.358Z,96587.27
2019-01-24T00:11:37.853Z,96587.27
2019-01-24T00:14:07.336Z,96593.04
2019-01-24T00:16:36.836Z,96588.77
2019-01-24T00:19:06.554Z,96594.28
2019-01-24T00:21:36.055Z,96593.87
2019-01-24T00:24:05.561Z,96589.39
2019-01-24T00:26:35.180Z,96589.39
2019-01-24T00:29:04.786Z,96603.09
2019-01-24T00:31:34.270Z,96607.06
2019-01-24T00:34:03.973Z,96606.49
2019-01-24T00:36:33.627Z,96612.03
2019-01-24T00:39:03.704Z,96619.52
2019-01-24T00:41:33.188Z,96611.20
2019-01-24T00:44:02.832Z,96616.05
2019-01-24T00:46:33.361Z,96620.03
2019-01-24T00:49:02.863Z,96622.57
2019-01-24T00:51:32.362Z,96626.59
2019-01-24T00:54:02.064Z,96632.14
2019-01-24T00:56:31.737Z,96633.14
2019-01-24T00:59:01.199Z,96637.84
2019-01-24T01:01:30.691Z,96639.19
2019-01-24T01:04:00.164Z,96652.23
2019-01-24T01:06:29.714Z,96657.91
2019-01-24T01:08:59.422Z,96657.73
2019-01-24T01:11:28.885Z,96658.73
2019-01-24T01:13:58.435Z,96659.59
2019-01-24T01:16:28.009Z,96662.87
2019-01-24T01:18:57.499Z,96663.09
2019-01-24T01:21:27.000Z,96663.98
2019-01-24T01:23:56.589Z,96668.80
2019-01-24T01:26:26.090Z,96674.56
2019-01-24T01:28:55.583Z,96676.24
2019-01-24T01:31:25.175Z,96681.09
2019-01-24T01:33:54.702Z,96681.94
2019-01-24T01:36:24.224Z,96690.19
2019-01-24T01:38:53.774Z,96696.95
2019-01-24T01:41:23.303Z,96690.69
2019-01-24T01:43:52.754Z,96694.88
2019-01-24T01:46:22.408Z,96698.52
2019-01-24T01:48:51.864Z,96699.11
2019-01-24T01:51:21.335Z,96694.19
2019-01-24T01:53:50.858Z,96698.84
2019-01-24T01:56:20.349Z,96697.25
2019-01-24T01:58:49.881Z,96703.55
2019-01-24T02:01:19.360Z,96705.79
2019-01-24T02:03:48.881Z,96699.80
2019-01-24T02:06:18.361Z,96710.97
2019-01-24T02:08:47.836Z,96710.97
2019-01-24T02:11:17.395Z,96707.98
2019-01-24T02:13:46.857Z,96707.98
2019-01-24T02:16:16.428Z,96712.14
2019-01-24T02:18:45.901Z,96708.80
2019-01-24T02:21:15.592Z,96708.15
2019-01-24T02:23:45.088Z,96712.41
2019-01-24T02:26:14.561Z,96712.75
2019-01-24T02:28:44.108Z,96714.61
2019-01-24T02:31:13.585Z,96713.88
2019-01-24T02:33:43.081Z,96713.88
2019-01-24T02:36:12.546Z,96717.99
2019-01-24T02:38:42.064Z,96724.61
2019-01-24T02:41:11.539Z,96726.84
2019-01-24T02:43:41.068Z,96723.03
2019-01-24T02:46:10.573Z,96723.03
2019-01-24T02:48:40.042Z,96724.56
2019-01-24T02:51:09.543Z,96724.30
2019-01-24T02:53:39.010Z,96724.30
2019-01-24T02:56:08.651Z,96739.76
2019-01-24T02:58:38.124Z,96743.34
2019-01-24T03:01:07.601Z,96744.31
2019-01-24T03:03:37.128Z,96747.80
2019-01-24T03:06:06.596Z,96742.16
2019-01-24T03:08:36.110Z,96735.00
2019-01-24T03:11:05.862Z,96735.00
2019-01-24T03:13:35.349Z,96743.97
2019-01-24T03:16:05.030Z,96743.97
2019-01-24T03:18:34.732Z,96745.86
2019-01-24T03:21:04.413Z,96745.86
2019-01-24T03:23:33.937Z,96750.19
2019-01-24T03:26:03.414Z,96751.95
2019-01-24T03:28:32.916Z,96752.79
2019-01-24T03:31:02.422Z,96753.09
2019-01-24T03:33:31.885Z,96753.09
2019-01-24T03:36:01.685Z,96762.97
2019-01-24T03:38:31.167Z,96762.97
2019-01-24T03:41:00.642Z,96773.23
2019-01-24T03:43:30.131Z,96771.41
2019-01-24T03:45:59.643Z,96777.24
2019-01-24T03:48:29.343Z,96776.75
2019-01-24T03:50:58.823Z,96781.78
2019-01-24T03:53:28.329Z,96779.58
2019-01-24T03:55:57.919Z,96779.58
2019-01-24T03:58:27.602Z,96779.89
2019-01-24T04:00:57.333Z,96790.44
2019-01-24T04:03:26.834Z,96790.44
2019-01-24T04:05:56.324Z,96794.41
2019-01-24T04:08:25.905Z,96799.50
2019-01-24T04:10:55.754Z,96799.50
2019-01-24T04:13:25.296Z,96799.00
2019-01-24T04:15:55.066Z,96797.38
2019-01-24T04:18:24.607Z,96805.02
2019-01-24T04:20:54.099Z,96805.02
2019-01-24T04:23:24.032Z,96804.12
2019-01-24T04:25:53.547Z,96808.41
2019-01-24T04:28:23.018Z,96808.41
2019-01-24T04:30:52.541Z,96811.06
2019-01-24T04:33:22.021Z,96812.11
2019-01-24T04:35:51.666Z,96812.70
2019-01-24T04:38:21.151Z,96812.70
2019-01-24T04:40:50.674Z,96812.95
2019-01-24T04:43:20.182Z,96812.95
2019-01-24T04:45:49.661Z,96819.00
2019-01-24T04:48:19.251Z,96827.69
2019-01-24T04:50:48.764Z,96825.21
2019-01-24T04:53:18.250Z,96819.21
2019-01-24T04:55:47.787Z,96828.63
2019-01-24T04:58:17.261Z,96824.39
2019-01-24T05:00:46.764Z,96827.08
2019-01-24T05:03:16.299Z,96831.85
2019-01-24T05:05:45.900Z,96831.85
2019-01-24T05:08:15.396Z,96834.19
2019-01-24T05:10:44.981Z,96838.29
2019-01-24T05:13:14.518Z,96838.29
2019-01-24T05:15:43.970Z,96838.86
2019-01-24T05:18:13.666Z,96842.67
2019-01-24T05:20:43.261Z,96841.03
2019-01-24T05:23:12.740Z,96846.07
2019-01-24T05:25:42.262Z,96854.43
2019-01-24T05:28:11.764Z,96843.00
2019-01-24T05:30:41.314Z,96843.00
2019-01-24T05:33:10.950Z,96857.66
2019-01-24T05:35:40.548Z,96857.66
2019-01-24T05:38:10.243Z,96858.00
2019-01-24T05:40:39.933Z,96858.00
2019-01-24T05:43:09.426Z,96866.41
2019-01-24T05:45:38.944Z,96873.89
2019-01-24T05:48:08.485Z,96880.19
2019-01-24T05:50:37.953Z,96880.19
2019-01-24T05:53:07.459Z,96889.06
2019-01-24T05:55:36.990Z,96893.91
2019-01-24T05:58:06.451Z,96893.91
2019-01-24T06:00:38.925Z,96888.67
2019-01-24T06:03:08.423Z,96898.61
2019-01-24T06:05:41.817Z,96905.94
2019-01-24T06:08:09.730Z,96903.38
2019-01-24T06:10:39.295Z,96903.38
2019-01-24T06:13:08.786Z,96901.89
2019-01-24T06:15:38.317Z,96911.81
2019-01-24T06:18:07.829Z,96911.81
2019-01-24T06:20:37.313Z,96906.45
2019-01-24T06:23:06.821Z,96910.65
2019-01-24T06:25:36.294Z,96910.65
2019-01-24T06:28:06.398Z,96904.08
2019-01-24T06:30:35.906Z,96914.41
2019-01-24T06:33:05.420Z,96917.90
2019-01-24T06:35:34.944Z,96917.59
2019-01-24T06:38:04.634Z,96917.59
2019-01-24T06:40:34.238Z,96928.45
2019-01-24T06:43:03.914Z,96925.47
2019-01-24T06:45:33.445Z,96929.51
2019-01-24T06:48:03.097Z,96921.75
2019-01-24T06:50:34.240Z,96927.97
2019-01-24T06:53:03.739Z,96927.97
2019-01-24T06:55:33.207Z,96933.75
2019-01-24T06:58:03.083Z,96943.13
2019-01-24T07:00:32.636Z,96949.89
2019-01-24T07:03:02.118Z,96949.89
2019-01-24T07:05:31.607Z,96958.82
2019-01-24T07:08:01.069Z,96958.82
2019-01-24T07:10:30.749Z,96968.63
2019-01-24T07:13:00.374Z,96968.63
2019-01-24T07:15:29.932Z,96971.27
2019-01-24T07:17:59.431Z,96971.59
2019-01-24T07:20:28.937Z,96973.51
2019-01-24T07:22:58.449Z,96976.70
2019-01-24T07:25:29.080Z,96976.70
2019-01-24T07:27:58.583Z,96988.67
2019-01-24T07:30:28.115Z,96990.53
2019-01-24T07:32:59.719Z,96996.15
2019-01-24T07:35:29.367Z,96998.11
2019-01-24T07:37:58.872Z,96997.83
2019-01-24T07:40:28.468Z,96996.90
2019-01-24T07:42:57.946Z,97005.80
2019-01-24T07:45:32.852Z,97005.00
2019-01-24T07:48:02.387Z,97005.00
2019-01-24T07:50:32.132Z,97004.26
2019-01-24T07:53:01.658Z,97004.26
2019-01-24T07:55:31.184Z,97010.73
2019-01-24T07:58:00.888Z,97017.31
2019-01-24T08:00:30.785Z,97021.44
2019-01-24T08:03:00.502Z,97024.62
2019-01-24T08:05:30.212Z,97024.62
2019-01-24T08:08:00.000Z,97028.61
2019-01-24T08:10:29.562Z,97036.62
2019-01-24T08:12:59.045Z,97039.01
2019-01-24T08:15:29.228Z,97041.40
2019-01-24T08:17:58.967Z,97041.40
2019-01-24T08:20:29.077Z,97041.70
2019-01-24T08:22:58.590Z,97045.16
2019-01-24T08:25:28.091Z,97041.75
2019-01-24T08:27:57.555Z,97039.90
2019-01-24T08:30:32.566Z,97047.38
2019-01-24T08:33:02.038Z,97040.03
2019-01-24T08:35:31.740Z,97043.39
2019-01-24T08:38:01.264Z,97039.53
2019-01-24T08:40:30.732Z,97040.03
2019-01-24T08:43:00.295Z,97044.09
2019-01-24T08:45:29.765Z,97043.73
2019-01-24T08:47:59.304Z,97043.73
2019-01-24T08:50:28.763Z,97045.95
2019-01-24T08:52:58.647Z,97048.07
2019-01-24T08:55:33.935Z,97055.01
2019-01-24T08:58:03.720Z,97056.83
2019-01-24T09:00:33.252Z,97062.21
2019-01-24T09:03:02.766Z,97063.84
2019-01-24T09:05:32.568Z,97064.45
2019-01-24T09:08:02.044Z,97067.38
2019-01-24T09:10:33.805Z,97074.55
2019-01-24T09:13:03.653Z,97071.36
2019-01-24T09:15:33.263Z,97074.28
2019-01-24T09:18:02.779Z,97073.70
2019-01-24T09:20:32.357Z,97079.04
2019-01-24T09:23:01.978Z,97079.33
2019-01-24T09:25:31.518Z,97080.10
2019-01-24T09:28:01.107Z,97076.17
2019-01-24T09:30:30.899Z,97080.71
2019-01-24T09:33:00.483Z,97077.79
2019-01-24T09:35:29.961Z,97083.08
2019-01-24T09:37:59.651Z,97083.82
2019-01-24T09:40:29.169Z,97088.97
2019-01-24T09:42:58.698Z,97095.30
2019-01-24T09:45:29.709Z,97093.47
2019-01-24T09:48:01.011Z,97096.44
2019-01-24T09:50:31.233Z,97095.67
2019-01-24T09:53:00.745Z,97098.30
2019-01-24T09:55:30.540Z,97109.17
2019-01-24T09:58:00.075Z,97111.64
2019-01-24T10:00:34.381Z,97110.03
2019-01-24T10:03:04.085Z,97116.38
2019-01-24T10:05:33.547Z,97118.30
2019-01-24T10:08:03.036Z,97112.98
2019-01-24T10:10:32.555Z,97114.81
2019-01-24T10:13:02.141Z,97116.66
2019-01-24T10:15:31.855Z,97119.27
2019-01-24T10:18:01.345Z,97120.11
2019-01-24T10:20:30.901Z,97119.77
2019-01-24T10:23:00.418Z,97120.35
2019-01-24T10:25:35.079Z,97117.70
2019-01-24T10:28:04.689Z,97110.56
2019-01-24T10:30:34.184Z,97113.53
2019-01-24T10:33:04.132Z,97108.99
2019-01-24T10:35:33.606Z,97109.29
2019-01-24T10:38:03.123Z,97106.91
2019-01-24T10:40:33.563Z,97113.26
2019-01-24T10:43:03.053Z,97110.34
2019-01-24T10:45:33.004Z,97121.78
2019-01-24T10:48:02.518Z,97115.67
2019-01-24T10:50:32.115Z,97117.45
2019-01-24T10:53:01.633Z,97113.79
2019-01-24T10:55:31.191Z,97120.91
2019-01-24T10:58:02.867Z,97121.69
2019-01-24T11:00:38.271Z,97121.16
2019-01-24T11:03:10.530Z,97119.84
2019-01-24T11:05:40.013Z,97118.95
2019-01-24T11:08:09.507Z,97123.25
2019-01-24T11:10:39.118Z,97113.66
2019-01-24T11:13:08.610Z,97117.14
2019-01-24T11:15:38.347Z,97119.51
2019-01-24T11:18:08.936Z,97128.58
2019-01-24T11:20:38.510Z,97129.55
2019-01-24T11:23:08.050Z,97130.14
2019-01-24T11:25:37.558Z,97131.03
2019-01-24T11:28:07.242Z,97133.41
2019-01-24T11:30:37.120Z,97128.45
2019-01-24T11:33:07.759Z,97130.53
2019-01-24T11:35:38.209Z,97134.22
2019-01-24T11:38:08.213Z,97129.31
2019-01-24T11:40:37.710Z,97130.84
2019-01-24T11:43:07.915Z,97132.12
2019-01-24T11:45:43.034Z,97134.83
2019-01-24T11:48:12.537Z,97125.56
2019-01-24T11:50:42.123Z,97125.53
2019-01-24T11:53:11.743Z,97125.56
2019-01-24T11:55:41.295Z,97128.22
2019-01-24T11:58:10.757Z,97123.79
2019-01-24T12:00:45.754Z,97123.59
2019-01-24T12:03:15.215Z,97129.35
2019-01-24T12:05:44.808Z,97126.39
2019-01-24T12:08:14.301Z,97121.51
2019-01-24T12:10:43.779Z,97122.38
2019-01-24T12:13:13.289Z,97129.95
2019-01-24T12:15:42.806Z,97121.75
2019-01-24T12:18:12.314Z,97125.23
2019-01-24T12:20:41.787Z,97124.45
2019-01-24T12:23:11.307Z,97128.20
2019-01-24T12:25:40.790Z,97129.88
2019-01-24T12:28:10.318Z,97125.19
2019-01-24T12:30:39.791Z,97124.56
2019-01-24T12:33:09.290Z,97126.05
2019-01-24T12:35:38.904Z,97126.64
2019-01-24T12:38:08.589Z,97126.64
2019-01-24T12:40:38.072Z,97132.61
2019-01-24T12:43:07.533Z,97134.22
2019-01-24T12:45:38.246Z,97130.27
2019-01-24T12:48:08.286Z,97129.61
2019-01-24T12:50:37.999Z,97126.23
2019-01-24T12:53:08.385Z,97130.52
2019-01-24T12:55:37.942Z,97126.91
2019-01-24T12:58:07.436Z,97131.38
2019-01-24T13:00:40.611Z,97131.38
2019-01-24T13:03:10.323Z,97125.13
2019-01-24T13:05:39.797Z,97130.79
2019-01-24T13:08:09.738Z,97127.66
2019-01-24T13:10:39.346Z,97133.97
2019-01-24T13:13:09.040Z,97133.97
2019-01-24T13:15:38.775Z,97134.39
2019-01-24T13:18:08.546Z,97139.03
2019-01-24T13:20:38.267Z,97138.34
2019-01-24T13:23:08.120Z,97139.91
2019-01-24T13:25:38.299Z,97134.43
2019-01-24T13:28:08.145Z,97143.81
2019-01-24T13:30:38.122Z,97145.36
2019-01-24T13:33:08.468Z,97145.36
2019-01-24T13:35:38.590Z,97140.79
2019-01-24T13:38:08.753Z,97149.78
2019-01-24T13:40:38.299Z,97149.78
2019-01-24T13:43:08.687Z,97150.21
2019-01-24T13:45:39.776Z,97150.21
2019-01-24T13:48:09.572Z,97157.00
2019-01-24T13:50:39.075Z,97158.35
2019-01-24T13:53:09.139Z,97163.03
2019-01-24T13:55:39.494Z,97163.03
2019-01-24T13:58:09.684Z,97165.31
2019-01-24T14:00:40.746Z,97171.55
2019-01-24T14:03:44.452Z,97171.55
2019-01-24T14:06:13.920Z,97174.59
2019-01-24T14:08:43.528Z,97176.35
2019-01-24T14:11:18.000Z,97176.35
2019-01-24T14:13:44.290Z,97174.86
2019-01-24T14:16:13.811Z,97179.13
2019-01-24T14:18:43.272Z,97183.77
2019-01-24T14:21:12.758Z,97183.77
2019-01-24T14:23:42.255Z,97184.41
2019-01-24T14:26:11.814Z,97186.28
2019-01-24T14:28:41.291Z,97197.02
2019-01-24T14:31:11.025Z,97195.27
2019-01-24T14:33:40.482Z,97195.27
2019-01-24T14:36:10.045Z,97198.53
2019-01-24T14:38:39.822Z,97204.78
2019-01-24T14:41:09.320Z,97204.78
2019-01-24T14:43:38.827Z,97206.69
2019-01-24T14:46:08.417Z,97209.30
2019-01-24T14:48:37.960Z,97209.30
2019-01-24T14:51:07.418Z,97211.09
2019-01-24T14:53:37.065Z,97216.27
2019-01-24T14:56:06.575Z,97218.28
2019-01-24T14:58:36.075Z,97218.28
2019-01-24T15:01:26.804Z,97221.12
2019-01-24T15:03:57.324Z,97221.66
2019-01-24T15:06:26.951Z,97222.86
2019-01-24T15:08:56.711Z,97221.23
2019-01-24T15:11:26.196Z,97223.03
2019-01-24T15:13:55.775Z,97229.76
2019-01-24T15:16:25.967Z,97232.72
2019-01-24T15:18:55.514Z,97242.19
2019-01-24T15:21:25.184Z,97225.95
2019-01-24T15:23:54.711Z,97240.05
2019-01-24T15:26:24.193Z,97240.05
2019-01-24T15:28:53.697Z,97257.13
2019-01-24T15:31:23.148Z,97257.13
2019-01-24T15:33:52.788Z,97255.73
2019-01-24T15:36:22.353Z,97257.19
2019-01-24T15:38:51.831Z,97254.67
2019-01-24T15:41:21.377Z,97248.22
2019-01-24T15:43:50.860Z,97253.78
2019-01-24T15:46:20.456Z,97253.23
2019-01-24T15:48:49.933Z,97257.75
2019-01-24T15:51:19.746Z,97261.22
2019-01-24T15:53:49.346Z,97261.25
2019-01-24T15:56:18.840Z,97270.53
2019-01-24T15:58:48.351Z,97270.53
2019-01-24T16:01:17.819Z,97277.16
2019-01-24T16:03:47.335Z,97283.75
2019-01-24T16:06:16.802Z,97282.73
2019-01-24T16:08:46.396Z,97282.93
2019-01-24T16:11:15.978Z,97283.35
2019-01-24T16:13:45.607Z,97278.48
2019-01-24T16:16:15.142Z,97280.70
2019-01-24T16:18:44.680Z,97286.08
2019-01-24T16:21:14.821Z,97287.68
2019-01-24T16:23:44.693Z,97286.43
2019-01-24T16:26:15.728Z,97293.50
2019-01-24T16:31:14.120Z,97298.08
2019-01-24T16:33:43.709Z,97298.08
2019-01-24T16:36:13.315Z,97312.56
2019-01-24T16:38:43.130Z,97312.30
2019-01-24T16:41:13.101Z,97321.39
2019-01-24T16:43:43.183Z,97316.02
2019-01-24T16:46:12.902Z,97306.99
2019-01-24T16:48:42.832Z,97317.59
2019-01-24T16:51:12.493Z,97317.59
2019-01-24T16:53:42.225Z,97320.73
2019-01-24T16:56:12.013Z,97323.02
2019-01-24T16:58:41.628Z,97323.00
2019-01-24T17:01:17.784Z,97325.15
2019-01-24T17:03:47.409Z,97328.25
2019-01-24T17:06:17.296Z,97332.62
2019-01-24T17:08:47.734Z,97337.09
2019-01-24T17:11:17.279Z,97349.13
2019-01-24T17:13:47.003Z,97341.27
2019-01-24T17:16:16.488Z,97349.22
2019-01-24T17:18:45.964Z,97349.71
2019-01-24T17:21:15.464Z,97350.57
2019-01-24T17:23:45.078Z,97360.31
2019-01-24T17:26:14.722Z,97355.75
2019-01-24T17:28:44.290Z,97355.16
2019-01-24T17:31:13.872Z,97355.87
2019-01-24T17:33:43.531Z,97362.95
2019-01-24T17:36:13.042Z,97363.41
2019-01-24T17:38:42.511Z,97364.36
2019-01-24T17:41:12.102Z,97370.59
2019-01-24T17:43:41.705Z,97370.59
2019-01-24T17:46:11.235Z,97374.25
2019-01-24T17:48:40.922Z,97372.74
2019-01-24T17:51:10.509Z,97368.77
2019-01-24T17:53:43.219Z,97377.78
2019-01-24T17:56:12.796Z,97377.78
2019-01-24T17:58:42.368Z,97385.55
2019-01-24T18:01:11.853Z,97387.59
2019-01-24T18:03:42.606Z,97393.92
2019-01-24T18:06:12.339Z,97395.11
2019-01-24T18:08:41.988Z,97395.00
2019-01-24T18:11:11.465Z,97406.34
2019-01-24T18:13:40.969Z,97406.34
2019-01-24T18:16:10.686Z,97411.55
2019-01-24T18:18:40.201Z,97411.55
2019-01-24T18:21:09.976Z,97411.08
2019-01-24T18:23:39.586Z,97411.08
2019-01-24T18:26:09.108Z,97422.58
2019-01-24T18:28:38.787Z,97421.52
2019-01-24T18:31:08.274Z,97421.52
2019-01-24T18:33:37.985Z,97426.95
2019-01-24T18:36:07.679Z,97424.30
2019-01-24T18:38:38.617Z,97433.93
2019-01-24T18:41:08.969Z,97436.41
2019-01-24T18:43:39.237Z,97433.93
2019-01-24T18:46:08.850Z,97441.07
2019-01-24T18:48:38.323Z,97436.09
2019-01-24T18:51:07.821Z,97438.39
2019-01-24T18:53:37.335Z,97438.39
2019-01-24T18:56:06.943Z,97440.75
2019-01-24T18:58:36.459Z,97443.79
2019-01-24T19:01:06.213Z,97444.42
2019-01-24T19:03:35.720Z,97453.15
2019-01-24T19:06:05.435Z,97453.15
2019-01-24T19:08:34.940Z,97452.00
2019-01-24T19:11:05.036Z,97455.93
2019-01-24T19:13:34.812Z,97458.03
2019-01-24T19:16:06.949Z,97462.95
2019-01-24T19:18:36.987Z,97456.34
2019-01-24T19:21:06.701Z,97455.11
2019-01-24T19:23:36.178Z,97455.11
2019-01-24T19:26:05.897Z,97466.14
2019-01-24T19:28:35.634Z,97466.14
2019-01-24T19:31:05.261Z,97472.95
2019-01-24T19:33:34.853Z,97475.09
2019-01-24T19:36:04.457Z,97480.29
2019-01-24T19:38:33.958Z,97478.80
2019-01-24T19:41:03.492Z,97482.09
2019-01-24T19:43:33.324Z,97482.09
2019-01-24T19:46:02.898Z,97485.70
2019-01-24T19:48:32.418Z,97483.73
2019-01-24T19:51:02.209Z,97486.78
2019-01-24T19:53:31.692Z,97482.33
2019-01-24T19:56:01.168Z,97485.70
2019-01-24T19:58:30.696Z,97485.90
2019-01-24T20:01:00.206Z,97486.90
2019-01-24T20:03:29.988Z,97486.90
2019-01-24T20:05:59.568Z,97493.72
2019-01-24T20:08:29.506Z,97503.33
2019-01-24T20:10:59.140Z,97501.05
2019-01-24T20:13:29.195Z,97507.63
2019-01-24T20:15:58.772Z,97507.63
2019-01-24T20:18:28.338Z,97511.67
2019-01-24T20:20:57.902Z,97512.95
2019-01-24T20:23:27.402Z,97507.98
2019-01-24T20:25:56.911Z,97507.66
2019-01-24T20:28:26.409Z,97510.77
2019-01-24T20:30:55.935Z,97512.70
2019-01-24T20:33:25.761Z,97514.99
2019-01-24T20:35:57.922Z,97514.99
2019-01-24T20:38:27.423Z,97525.05
2019-01-24T20:40:57.006Z,97525.05
2019-01-24T20:43:26.505Z,97525.17
2019-01-24T20:45:55.994Z,97531.33
2019-01-24T20:48:25.514Z,97534.95
2019-01-24T20:50:55.145Z,97534.66
2019-01-24T20:53:24.955Z,97538.39
2019-01-24T20:55:54.450Z,97533.94
2019-01-24T20:58:23.926Z,97543.12
2019-01-24T21:00:53.437Z,97543.12
2019-01-24T21:03:22.929Z,97544.52
2019-01-24T21:05:52.499Z,97544.52
2019-01-24T21:08:22.005Z,97548.23
2019-01-24T21:10:51.671Z,97552.26
2019-01-24T21:13:21.144Z,97552.20
2019-01-24T21:15:50.643Z,97551.33
2019-01-24T21:18:20.170Z,97554.27
2019-01-24T21:20:49.745Z,97554.27
2019-01-24T21:23:19.354Z,97549.84
2019-01-24T21:25:48.845Z,97551.80
2019-01-24T21:28:18.342Z,97554.84
2019-01-24T21:30:47.953Z,97553.80
2019-01-24T21:33:17.525Z,97551.84
2019-01-24T21:35:47.090Z,97555.41
2019-01-24T21:38:16.694Z,97554.50
2019-01-24T21:40:46.204Z,97558.41
2019-01-24T21:43:15.703Z,97560.84
2019-01-24T21:45:45.335Z,97561.00
2019-01-24T21:48:14.824Z,97561.00
2019-01-24T21:50:46.294Z,97565.55
2019-01-24T21:53:15.869Z,97562.70
2019-01-24T21:55:45.373Z,97568.35
2019-01-24T21:58:14.946Z,97570.97
2019-01-24T22:00:44.513Z,97573.24
2019-01-24T22:03:14.011Z,97576.06
2019-01-24T22:05:43.561Z,97571.87
2019-01-24T22:08:13.072Z,97566.59
2019-01-24T22:10:42.745Z,97573.24
2019-01-24T22:13:12.232Z,97577.39
2019-01-24T22:15:41.715Z,97575.98
2019-01-24T22:18:11.230Z,97578.42
2019-01-24T22:20:40.963Z,97585.22
2019-01-24T22:23:10.489Z,97578.66
2019-01-24T22:25:40.070Z,97578.44
2019-01-24T22:28:09.576Z,97579.84
2019-01-24T22:30:44.674Z,97586.12
2019-01-24T22:33:14.210Z,97583.28
2019-01-24T22:35:43.734Z,97587.53
2019-01-24T22:38:13.213Z,97584.70
2019-01-24T22:40:42.825Z,97584.70
2019-01-24T22:43:12.314Z,97579.56
2019-01-24T22:45:41.919Z,97578.95
2019-01-24T22:48:11.530Z,97580.41
2019-01-24T22:50:41.143Z,97582.25
2019-01-24T22:53:10.792Z,97582.25
2019-01-24T22:55:40.283Z,97590.22
2019-01-24T22:58:09.793Z,97590.22
2019-01-24T23:01:15.994Z,97588.66
2019-01-24T23:04:09.578Z,97582.81
2019-01-24T23:06:39.246Z,97585.13
2019-01-24T23:09:11.360Z,97587.39
2019-01-24T23:11:40.902Z,97583.38
2019-01-24T23:14:10.381Z,97577.00
2019-01-24T23:16:39.873Z,97581.78
2019-01-24T23:19:09.422Z,97581.78
2019-01-24T23:21:39.316Z,97584.84
2019-01-24T23:24:08.813Z,97585.87
2019-01-24T23:26:38.272Z,97585.28
2019-01-24T23:29:07.880Z,97585.28
2019-01-24T23:31:37.433Z,97579.84
2019-01-24T23:34:07.078Z,97582.47
2019-01-24T23:36:36.713Z,97588.05
2019-01-24T23:39:09.740Z,97588.05
2019-01-24T23:41:39.291Z,97583.20
2019-01-24T23:44:08.768Z,97586.68
2019-01-24T23:46:38.477Z,97583.89
2019-01-24T23:49:07.981Z,97583.89
2019-01-24T23:51:37.622Z,97586.92
2019-01-24T23:54:07.111Z,97583.98
2019-01-24T23:56:36.636Z,97583.98
2019-01-24T23:59:06.121Z,97585.22
